createdAt,value
2022-09-29T00:00:42.088Z,12.60
2022-09-29T00:01:42.112Z,13.60
2022-09-29T00:02:42.106Z,13.10
2022-09-29T00:03:42.007Z,13.20
2022-09-29T00:04:41.979Z,12.00
2022-09-29T00:05:41.961Z,12.80
2022-09-29T00:06:41.933Z,12.60
2022-09-29T00:07:41.908Z,13.90
2022-09-29T00:08:41.883Z,13.60
2022-09-29T00:09:41.861Z,14.80
2022-09-29T00:10:41.857Z,13.60
2022-09-29T00:11:41.814Z,13.40
2022-09-29T00:12:41.789Z,14.20
2022-09-29T00:13:41.778Z,13.90
2022-09-29T00:14:45.646Z,13.60
2022-09-29T00:15:41.719Z,12.50
2022-09-29T00:16:41.813Z,13.20
2022-09-29T00:17:49.657Z,12.70
2022-09-29T00:18:41.645Z,12.40
2022-09-29T00:21:41.570Z,12.90
2022-09-29T00:22:41.547Z,12.80
2022-09-29T00:23:41.527Z,13.00
2022-09-29T00:24:41.498Z,13.00
2022-09-29T00:25:41.477Z,13.90
2022-09-29T00:26:41.471Z,13.20
2022-09-29T00:27:41.427Z,14.10
2022-09-29T00:28:41.402Z,13.30
2022-09-29T00:29:41.381Z,13.60
2022-09-29T00:30:41.360Z,12.70
2022-09-29T00:31:41.409Z,14.10
2022-09-29T00:32:41.306Z,13.60
2022-09-29T00:33:41.285Z,13.40
2022-09-29T00:34:41.258Z,12.90
2022-09-29T00:35:41.240Z,13.70
2022-09-29T00:36:41.208Z,12.40
2022-09-29T00:37:41.186Z,12.80
2022-09-29T00:38:41.165Z,13.20
2022-09-29T00:39:41.138Z,13.20
2022-09-29T00:40:41.159Z,13.50
2022-09-29T00:41:41.093Z,12.90
2022-09-29T00:42:41.099Z,12.90
2022-09-29T00:43:41.040Z,13.70
2022-09-29T00:44:41.016Z,13.10
2022-09-29T00:45:41.095Z,13.20
2022-09-29T00:46:40.968Z,13.00
2022-09-29T00:47:40.942Z,12.30
2022-09-29T00:48:40.933Z,12.50
2022-09-29T00:49:40.901Z,12.50
2022-09-29T00:50:40.876Z,12.60
2022-09-29T00:51:40.849Z,12.40
2022-09-29T00:53:40.798Z,12.40
2022-09-29T00:54:40.775Z,12.70
2022-09-29T00:55:40.756Z,11.90
2022-09-29T00:56:40.727Z,11.90
2022-09-29T00:57:40.704Z,12.70
2022-09-29T00:58:40.772Z,13.30
2022-09-29T00:59:40.652Z,14.30
2022-09-29T01:00:40.744Z,13.20
2022-09-29T01:01:40.673Z,13.30
2022-09-29T01:02:40.580Z,13.60
2022-09-29T01:03:40.555Z,13.00
2022-09-29T01:04:40.530Z,13.80
2022-09-29T01:05:40.509Z,13.40
2022-09-29T01:06:40.485Z,14.50
2022-09-29T01:07:40.459Z,14.00
2022-09-29T01:08:40.434Z,13.90
2022-09-29T01:09:40.409Z,14.10
2022-09-29T01:10:40.388Z,14.50
2022-09-29T01:21:40.119Z,13.00
2022-09-29T01:22:40.093Z,12.70
2022-09-29T01:47:39.490Z,14.00
2022-09-29T01:48:39.457Z,13.10
2022-09-29T01:49:39.431Z,14.20
2022-09-29T01:50:39.413Z,14.20
2022-09-29T02:16:38.832Z,14.80
2022-09-29T02:17:38.746Z,13.80
2022-09-29T02:18:38.740Z,13.90
2022-09-29T02:19:38.695Z,13.70
2022-09-29T02:20:38.669Z,13.80
2022-09-29T02:43:38.102Z,13.00
2022-09-29T02:44:38.077Z,12.80
2022-09-29T02:45:38.120Z,14.40
2022-09-29T02:46:38.027Z,14.00
2022-09-29T02:47:38.009Z,13.50
2022-09-29T02:48:37.977Z,14.10
2022-09-29T02:49:37.958Z,14.30
2022-09-29T02:50:37.947Z,14.00
2022-09-29T02:51:37.904Z,14.40
2022-09-29T03:10:37.430Z,16.00
2022-09-29T03:11:37.406Z,15.70
2022-09-29T03:12:37.382Z,16.20
2022-09-29T03:13:37.359Z,15.50
2022-09-29T03:14:37.337Z,15.90
2022-09-29T03:15:37.309Z,16.20
2022-09-29T03:16:37.370Z,16.00
2022-09-29T03:17:37.262Z,16.80
2022-09-29T03:18:37.233Z,15.80
2022-09-29T03:19:37.207Z,15.20
2022-09-29T03:38:36.756Z,15.80
2022-09-29T03:39:36.710Z,15.50
2022-09-29T03:40:36.775Z,15.10
2022-09-29T03:41:36.676Z,15.40
2022-09-29T03:42:36.638Z,16.80
2022-09-29T03:43:36.612Z,15.10
2022-09-29T03:44:36.588Z,15.50
2022-09-29T03:45:36.601Z,14.80
2022-09-29T03:46:36.537Z,15.60
2022-09-29T03:47:36.518Z,15.80
2022-09-29T03:48:36.489Z,14.80
2022-09-29T03:49:36.463Z,14.50
2022-09-29T03:50:36.435Z,15.50
2022-09-29T04:06:36.039Z,14.70
2022-09-29T04:07:36.016Z,15.00
2022-09-29T04:08:35.990Z,16.50
2022-09-29T04:09:35.964Z,15.70
2022-09-29T04:10:35.963Z,14.60
2022-09-29T04:11:35.911Z,14.80
2022-09-29T04:12:35.887Z,14.90
2022-09-29T04:13:35.864Z,14.80
2022-09-29T04:14:35.843Z,13.90
2022-09-29T04:15:35.813Z,14.50
2022-09-29T04:16:35.864Z,14.80
2022-09-29T04:17:35.761Z,14.20
2022-09-29T04:18:35.736Z,14.60
2022-09-29T04:19:35.721Z,14.60
2022-09-29T04:20:35.687Z,14.60
2022-09-29T04:21:35.662Z,14.50
2022-09-29T04:36:35.287Z,12.90
2022-09-29T04:37:35.261Z,12.00
2022-09-29T04:38:35.238Z,12.00
2022-09-29T04:39:35.212Z,12.50
2022-09-29T04:40:35.235Z,12.50
2022-09-29T04:41:35.163Z,12.30
2022-09-29T04:42:35.162Z,12.70
2022-09-29T04:43:35.117Z,13.90
2022-09-29T04:44:35.086Z,13.60
2022-09-29T04:45:35.112Z,12.60
2022-09-29T04:46:35.035Z,14.60
2022-09-29T04:47:35.007Z,13.10
2022-09-29T04:48:36.028Z,12.70
2022-09-29T04:49:34.957Z,13.70
2022-09-29T04:50:34.938Z,15.00
2022-09-29T04:51:34.907Z,14.10
2022-09-29T04:52:34.883Z,14.30
2022-09-29T05:04:34.586Z,13.00
2022-09-29T05:05:34.559Z,12.90
2022-09-29T05:06:34.536Z,13.00
2022-09-29T05:07:34.511Z,12.50
2022-09-29T05:08:34.484Z,12.40
2022-09-29T05:09:34.658Z,12.80
2022-09-29T05:10:34.431Z,11.90
2022-09-29T05:11:34.407Z,11.40
2022-09-29T05:12:34.385Z,11.90
2022-09-29T05:13:34.356Z,11.10
2022-09-29T05:14:34.357Z,11.10
2022-09-29T05:15:34.310Z,12.50
2022-09-29T05:16:34.343Z,11.90
2022-09-29T05:17:34.265Z,11.40
2022-09-29T05:18:34.234Z,11.50
2022-09-29T05:19:34.205Z,11.10
2022-09-29T05:20:40.448Z,12.20
2022-09-29T05:21:34.153Z,11.20
2022-09-29T05:32:33.878Z,13.30
2022-09-29T05:33:33.855Z,12.00
2022-09-29T05:34:33.831Z,13.60
2022-09-29T05:35:33.800Z,14.50
2022-09-29T05:36:33.775Z,17.20
2022-09-29T05:37:33.750Z,18.30
2022-09-29T05:38:33.725Z,16.50
2022-09-29T05:39:33.698Z,15.80
2022-09-29T05:40:33.722Z,13.30
2022-09-29T05:41:33.649Z,13.00
2022-09-29T05:42:33.626Z,12.20
2022-09-29T05:43:33.598Z,11.80
2022-09-29T05:44:33.575Z,11.40
2022-09-29T05:45:33.605Z,12.20
2022-09-29T05:46:33.550Z,12.70
2022-09-29T05:47:33.497Z,13.50
2022-09-29T05:48:33.472Z,12.60
2022-09-29T05:49:33.452Z,13.50
2022-09-29T05:50:33.421Z,12.70
2022-09-29T05:51:33.397Z,13.20
2022-09-29T06:00:33.177Z,13.50
2022-09-29T06:01:33.203Z,14.40
2022-09-29T06:02:33.302Z,13.70
2022-09-29T06:03:33.090Z,12.90
2022-09-29T06:04:36.304Z,13.60
2022-09-29T06:05:33.050Z,13.80
2022-09-29T06:06:33.022Z,14.00
2022-09-29T06:07:33.000Z,14.10
2022-09-29T06:08:32.963Z,14.10
2022-09-29T06:09:32.942Z,14.30
2022-09-29T06:10:32.918Z,13.90
2022-09-29T06:11:32.890Z,13.90
2022-09-29T06:12:32.866Z,13.80
2022-09-29T06:13:32.839Z,14.50
2022-09-29T06:14:32.811Z,13.80
2022-09-29T06:15:32.788Z,13.80
2022-09-29T06:16:32.853Z,13.40
2022-09-29T06:17:32.740Z,13.60
2022-09-29T06:18:32.739Z,13.50
2022-09-29T06:19:32.685Z,14.40
2022-09-29T06:20:32.665Z,14.50
2022-09-29T06:21:32.638Z,14.70
2022-09-29T06:22:32.615Z,15.00
2022-09-29T06:23:32.587Z,15.50
2022-09-29T06:29:32.435Z,15.90
2022-09-29T06:30:32.417Z,16.20
2022-09-29T06:31:32.478Z,15.90
2022-09-29T06:32:32.360Z,15.80
2022-09-29T06:33:32.333Z,16.10
2022-09-29T06:34:32.332Z,16.40
2022-09-29T06:35:32.284Z,17.50
2022-09-29T06:36:32.262Z,16.40
2022-09-29T06:37:32.232Z,16.80
2022-09-29T06:38:32.206Z,16.10
2022-09-29T06:39:32.184Z,16.50
2022-09-29T06:40:32.189Z,17.80
2022-09-29T06:41:32.135Z,15.60
2022-09-29T06:42:32.109Z,16.60
2022-09-29T06:43:32.082Z,16.40
2022-09-29T06:44:32.057Z,15.70
2022-09-29T06:45:32.106Z,16.50
2022-09-29T06:46:32.014Z,16.50
2022-09-29T06:47:31.983Z,16.80
2022-09-29T06:48:31.959Z,15.80
2022-09-29T06:49:31.937Z,17.00
2022-09-29T06:50:32.037Z,17.70
2022-09-29T06:51:44.654Z,16.50
2022-09-29T06:52:31.859Z,16.60
2022-09-29T06:53:37.870Z,17.10
2022-09-29T06:54:31.806Z,17.40
2022-09-29T06:55:31.778Z,16.00
2022-09-29T06:56:31.760Z,17.00
2022-09-29T06:57:31.736Z,18.30
2022-09-29T06:58:31.703Z,17.50
2022-09-29T06:59:31.681Z,17.70
2022-09-29T07:00:31.652Z,18.30
2022-09-29T07:01:31.661Z,16.50
2022-09-29T07:02:31.647Z,18.70
2022-09-29T07:03:31.578Z,18.70
2022-09-29T07:04:31.576Z,18.80
2022-09-29T07:05:31.559Z,18.00
2022-09-29T07:06:31.591Z,17.70
2022-09-29T07:07:31.487Z,18.20
2022-09-29T07:08:31.455Z,18.50
2022-09-29T07:09:31.430Z,17.80
2022-09-29T07:10:31.410Z,19.60
2022-09-29T07:11:31.380Z,20.60
2022-09-29T07:12:31.364Z,19.30
2022-09-29T07:13:31.332Z,19.40
2022-09-29T07:14:31.315Z,20.30
2022-09-29T07:15:31.286Z,21.20
2022-09-29T07:16:31.322Z,19.70
2022-09-29T07:17:31.235Z,19.50
2022-09-29T07:18:31.210Z,19.70
2022-09-29T07:19:31.181Z,20.50
2022-09-29T07:20:31.157Z,20.20
2022-09-29T07:21:31.139Z,19.70
2022-09-29T07:22:32.876Z,19.90
2022-09-29T07:23:31.083Z,19.90
2022-09-29T07:24:31.072Z,20.10
2022-09-29T07:25:52.696Z,19.50
2022-09-29T07:26:31.013Z,19.40
2022-09-29T07:27:30.989Z,19.90
2022-09-29T07:28:30.963Z,19.00
2022-09-29T07:29:30.936Z,18.90
2022-09-29T07:30:39.045Z,19.10
2022-09-29T07:31:36.710Z,18.90
2022-09-29T07:32:30.926Z,19.90
2022-09-29T07:33:38.229Z,19.00
2022-09-29T07:34:30.807Z,18.90
2022-09-29T07:35:30.790Z,19.90
2022-09-29T07:43:30.589Z,18.50
2022-09-29T07:44:30.577Z,19.50
2022-09-29T07:45:30.571Z,19.60
2022-09-29T07:46:30.567Z,18.80
2022-09-29T07:47:30.503Z,19.90
2022-09-29T07:48:31.983Z,18.90
2022-09-29T07:49:30.445Z,19.90
2022-09-29T07:50:30.420Z,18.70
2022-09-29T07:51:30.394Z,18.40
2022-09-29T07:52:30.371Z,18.20
2022-09-29T07:53:30.346Z,19.80
2022-09-29T07:54:30.455Z,18.90
2022-09-29T07:55:30.305Z,18.30
2022-09-29T07:56:30.275Z,18.90
2022-09-29T07:57:30.248Z,19.10
2022-09-29T07:58:30.225Z,17.90
2022-09-29T07:59:30.202Z,17.50
2022-09-29T08:00:30.172Z,18.80
2022-09-29T08:01:30.301Z,17.80
2022-09-29T08:02:30.253Z,18.50
2022-09-29T08:03:30.147Z,18.10
2022-09-29T08:04:30.076Z,17.70
2022-09-29T08:05:30.055Z,17.90
2022-09-29T08:06:30.030Z,17.90
2022-09-29T08:07:30.006Z,17.50
2022-09-29T08:08:29.980Z,17.00
2022-09-29T08:09:39.243Z,18.40
2022-09-29T08:10:29.950Z,18.40
2022-09-29T08:11:32.461Z,18.10
2022-09-29T08:12:40.529Z,17.30
2022-09-29T08:13:29.862Z,17.90
2022-09-29T08:14:29.836Z,18.30
2022-09-29T08:15:29.808Z,17.50
2022-09-29T08:16:29.868Z,18.80
2022-09-29T08:17:29.765Z,18.20
2022-09-29T08:18:29.739Z,17.10
2022-09-29T08:19:29.712Z,17.80
2022-09-29T08:20:29.686Z,18.50
2022-09-29T08:21:29.673Z,17.20
2022-09-29T08:22:29.638Z,17.70
2022-09-29T08:23:29.614Z,17.90
2022-09-29T08:24:29.595Z,17.70
2022-09-29T08:25:29.569Z,18.10
2022-09-29T08:26:40.767Z,17.60
2022-09-29T08:27:29.531Z,17.80
2022-09-29T08:28:32.315Z,17.10
2022-09-29T08:29:40.637Z,17.00
2022-09-29T08:30:29.442Z,17.80
2022-09-29T08:31:29.459Z,17.50
2022-09-29T08:32:29.395Z,16.40
2022-09-29T08:33:29.378Z,18.00
2022-09-29T08:34:29.349Z,16.90
2022-09-29T08:35:29.322Z,17.70
2022-09-29T08:36:29.303Z,17.00
2022-09-29T08:37:33.084Z,16.70
2022-09-29T08:38:29.254Z,18.50
2022-09-29T08:52:22.629Z,18.50
2022-09-29T08:53:28.297Z,18.20
2022-09-29T08:54:37.871Z,17.20
2022-09-29T08:55:22.646Z,18.00
2022-09-29T08:56:22.511Z,17.50
2022-09-29T08:57:22.484Z,18.50
2022-09-29T08:58:22.464Z,17.80
2022-09-29T08:59:22.434Z,18.00
2022-09-29T09:00:22.418Z,18.40
2022-09-29T09:01:22.484Z,18.20
2022-09-29T09:02:22.422Z,18.40
2022-09-29T09:03:22.339Z,19.80
2022-09-29T09:04:22.321Z,20.40
2022-09-29T09:05:22.294Z,18.00
2022-09-29T09:06:22.305Z,17.70
2022-09-29T09:07:22.244Z,18.50
2022-09-29T09:08:22.272Z,18.10
2022-09-29T09:09:22.194Z,18.10
2022-09-29T09:10:22.172Z,17.70
2022-09-29T09:11:22.144Z,17.10
2022-09-29T09:12:22.123Z,17.90
2022-09-29T09:13:22.104Z,18.40
2022-09-29T09:14:22.081Z,18.30
2022-09-29T09:15:22.050Z,17.70
2022-09-29T09:16:22.088Z,19.20
2022-09-29T09:17:22.003Z,17.30
2022-09-29T09:18:21.981Z,17.10
2022-09-29T09:19:21.957Z,17.80
2022-09-29T09:20:21.930Z,17.70
2022-09-29T09:21:22.084Z,17.90
2022-09-29T09:22:21.892Z,16.90
2022-09-29T09:23:21.861Z,17.60
2022-09-29T09:24:24.759Z,18.20
2022-09-29T09:25:21.833Z,17.20
2022-09-29T09:26:21.795Z,17.00
2022-09-29T09:27:21.773Z,17.80
2022-09-29T09:28:21.747Z,18.10
2022-09-29T09:29:21.720Z,18.40
2022-09-29T09:30:21.698Z,17.60
2022-09-29T09:31:21.774Z,17.20
2022-09-29T09:32:21.650Z,16.50
2022-09-29T09:33:30.369Z,17.20
2022-09-29T09:34:30.825Z,17.70
2022-09-29T09:35:23.943Z,16.00
2022-09-29T09:36:30.421Z,16.50
2022-09-29T09:37:21.533Z,16.50
2022-09-29T09:38:21.509Z,16.20
2022-09-29T09:39:21.485Z,16.90
2022-09-29T09:40:21.497Z,17.60
2022-09-29T09:41:21.437Z,17.80
2022-09-29T09:42:21.418Z,16.50
2022-09-29T09:43:21.391Z,17.30
2022-09-29T09:44:21.476Z,17.50
2022-09-29T09:45:21.346Z,19.20
2022-09-29T09:46:21.356Z,15.30
2022-09-29T09:47:21.296Z,16.80
2022-09-29T09:48:23.507Z,16.20
2022-09-29T09:49:21.339Z,15.90
2022-09-29T09:50:21.227Z,15.30
2022-09-29T09:51:21.202Z,15.90
2022-09-29T09:52:21.184Z,15.10
2022-09-29T09:53:21.155Z,16.30
2022-09-29T09:54:21.354Z,15.70
2022-09-29T09:55:21.118Z,15.50
2022-09-29T09:56:21.107Z,15.90
2022-09-29T09:57:21.065Z,16.00
2022-09-29T09:58:21.043Z,14.50
2022-09-29T09:59:21.086Z,15.30
2022-09-29T10:00:20.997Z,16.10
2022-09-29T10:01:21.043Z,17.10
2022-09-29T10:02:20.986Z,14.40
2022-09-29T10:03:20.926Z,15.30
2022-09-29T10:04:20.904Z,15.70
2022-09-29T10:05:20.885Z,14.80
2022-09-29T10:06:20.857Z,14.90
2022-09-29T10:07:20.835Z,13.70
2022-09-29T10:08:20.814Z,13.30
2022-09-29T10:09:21.157Z,13.80
2022-09-29T10:10:20.768Z,12.60
2022-09-29T10:11:20.741Z,29.60
2022-09-29T10:12:20.742Z,17.20
2022-09-29T10:13:20.706Z,14.60
2022-09-29T10:14:20.674Z,12.00
2022-09-29T10:15:20.658Z,12.60
2022-09-29T10:16:20.723Z,12.10
2022-09-29T10:17:20.605Z,13.40
2022-09-29T10:18:20.584Z,14.00
2022-09-29T10:19:20.790Z,12.40
2022-09-29T10:20:20.539Z,13.10
2022-09-29T10:21:20.512Z,13.50
2022-09-29T10:23:20.476Z,12.60
2022-09-29T10:24:20.528Z,12.40
2022-09-29T10:25:20.427Z,12.60
2022-09-29T10:26:20.403Z,12.50
2022-09-29T10:27:20.375Z,15.80
2022-09-29T10:28:20.375Z,12.20
2022-09-29T10:29:20.331Z,11.60
2022-09-29T10:30:20.366Z,12.40
2022-09-29T10:31:20.289Z,13.20
2022-09-29T10:32:20.266Z,12.00
2022-09-29T10:33:20.240Z,9.80
2022-09-29T10:34:20.309Z,10.40
2022-09-29T10:35:20.198Z,9.00
2022-09-29T10:36:20.174Z,10.50
2022-09-29T10:37:20.156Z,10.20
2022-09-29T10:38:20.128Z,11.20
2022-09-29T10:39:20.105Z,10.50
2022-09-29T10:40:20.080Z,9.40
2022-09-29T10:41:20.058Z,9.10
2022-09-29T10:42:20.040Z,12.20
2022-09-29T10:43:20.017Z,8.80
2022-09-29T10:44:20.091Z,10.80
2022-09-29T10:45:19.975Z,10.10
2022-09-29T10:46:19.997Z,9.60
2022-09-29T10:47:19.918Z,12.10
2022-09-29T10:48:19.902Z,11.90
2022-09-29T10:49:19.881Z,11.40
2022-09-29T10:50:19.854Z,9.50
2022-09-29T10:51:19.832Z,9.50
2022-09-29T10:52:19.811Z,11.30
2022-09-29T10:53:19.785Z,10.00
2022-09-29T10:54:19.938Z,10.00
2022-09-29T10:55:19.744Z,9.60
2022-09-29T10:56:19.722Z,9.80
2022-09-29T10:57:19.693Z,11.50
2022-09-29T10:58:37.506Z,8.20
2022-09-29T10:59:19.654Z,9.50
2022-09-29T11:00:19.647Z,8.40
2022-09-29T11:01:19.699Z,9.70
2022-09-29T11:02:19.641Z,7.80
2022-09-29T11:03:19.586Z,10.30
2022-09-29T11:04:19.542Z,9.90
2022-09-29T11:05:19.516Z,10.30
2022-09-29T11:06:19.493Z,8.50
2022-09-29T11:07:19.469Z,10.00
2022-09-29T11:08:19.448Z,8.90
2022-09-29T11:09:19.652Z,8.00
2022-09-29T11:10:19.402Z,9.20
2022-09-29T11:11:19.383Z,7.40
2022-09-29T11:12:19.357Z,7.40
2022-09-29T11:13:19.338Z,7.90
2022-09-29T11:14:19.321Z,9.40
2022-09-29T11:15:19.291Z,8.60
2022-09-29T11:16:19.377Z,11.60
2022-09-29T11:17:19.250Z,8.40
2022-09-29T11:18:19.258Z,8.40
2022-09-29T11:19:19.312Z,6.90
2022-09-29T11:20:19.194Z,10.70
2022-09-29T11:21:19.154Z,7.80
2022-09-29T11:22:19.134Z,9.80
2022-09-29T11:23:19.115Z,6.50
2022-09-29T11:24:19.096Z,7.00
2022-09-29T11:25:19.065Z,6.90
2022-09-29T11:26:19.041Z,6.40
2022-09-29T11:27:19.018Z,7.90
2022-09-29T11:28:18.996Z,9.80
2022-09-29T11:29:18.976Z,10.80
2022-09-29T11:30:19.154Z,6.40
2022-09-29T11:31:18.927Z,10.30
2022-09-29T11:32:18.929Z,8.90
2022-09-29T11:33:18.884Z,6.10
2022-09-29T11:34:18.861Z,7.60
2022-09-29T11:35:18.836Z,6.10
2022-09-29T11:36:18.815Z,5.60
2022-09-29T11:37:18.800Z,7.30
2022-09-29T11:38:18.768Z,7.00
2022-09-29T11:39:18.752Z,7.50
2022-09-29T11:40:18.727Z,6.30
2022-09-29T11:41:18.704Z,6.60
2022-09-29T11:42:18.681Z,7.50
2022-09-29T11:43:18.663Z,6.20
2022-09-29T11:44:18.635Z,8.50
2022-09-29T11:46:18.631Z,6.10
2022-09-29T11:47:18.566Z,6.10
2022-09-29T11:48:18.625Z,8.90
2022-09-29T11:49:18.653Z,8.40
2022-09-29T11:50:18.499Z,8.20
2022-09-29T11:51:18.475Z,8.60
2022-09-29T11:52:18.455Z,7.90
2022-09-29T11:53:18.434Z,8.40
2022-09-29T11:54:18.415Z,7.40
2022-09-29T11:55:18.389Z,6.90
2022-09-29T11:56:18.366Z,6.60
2022-09-29T11:57:19.541Z,6.00
2022-09-29T11:58:18.321Z,5.60
2022-09-29T11:59:18.300Z,7.00
2022-09-29T12:00:18.278Z,5.50
2022-09-29T12:01:18.259Z,6.80
2022-09-29T12:02:18.292Z,6.00
2022-09-29T12:03:18.346Z,6.50
2022-09-29T12:04:18.215Z,8.00
2022-09-29T12:05:18.167Z,6.30
2022-09-29T12:06:18.153Z,6.40
2022-09-29T12:07:18.123Z,9.20
2022-09-29T12:08:18.101Z,7.00
2022-09-29T12:09:18.375Z,6.70
2022-09-29T12:10:21.205Z,5.90
2022-09-29T12:11:41.957Z,6.80
2022-09-29T12:12:23.632Z,7.80
2022-09-29T12:13:17.986Z,5.40
2022-09-29T12:14:18.112Z,8.00
2022-09-29T12:15:18.017Z,8.40
2022-09-29T12:16:17.963Z,6.10
2022-09-29T12:17:17.896Z,7.20
2022-09-29T12:18:17.877Z,8.60
2022-09-29T12:19:17.967Z,5.50
2022-09-29T12:20:17.847Z,6.20
2022-09-29T12:21:17.987Z,6.30
2022-09-29T12:22:17.787Z,6.20
2022-09-29T12:23:17.771Z,6.30
2022-09-29T12:24:17.782Z,7.20
2022-09-29T12:25:17.716Z,7.40
2022-09-29T12:26:17.696Z,6.60
2022-09-29T12:27:17.672Z,7.10
2022-09-29T12:28:17.651Z,7.10
2022-09-29T12:29:17.629Z,6.80
2022-09-29T12:30:17.609Z,7.10
2022-09-29T12:31:17.641Z,6.20
2022-09-29T12:32:19.376Z,6.70
2022-09-29T12:33:17.535Z,7.00
2022-09-29T12:34:17.640Z,7.80
2022-09-29T12:35:17.496Z,7.30
2022-09-29T12:36:17.514Z,5.90
2022-09-29T12:37:17.443Z,6.10
2022-09-29T12:38:17.422Z,5.70
2022-09-29T12:39:17.399Z,5.30
2022-09-29T12:40:17.378Z,6.90
2022-09-29T12:41:17.356Z,5.40
2022-09-29T12:42:17.333Z,6.40
2022-09-29T12:43:17.314Z,6.10
2022-09-29T12:44:17.404Z,7.40
2022-09-29T12:45:17.270Z,5.80
2022-09-29T12:46:17.278Z,5.80
2022-09-29T12:47:17.220Z,7.00
2022-09-29T12:48:17.204Z,6.20
2022-09-29T12:49:17.181Z,7.60
2022-09-29T12:50:17.158Z,5.80
2022-09-29T12:51:17.132Z,5.70
2022-09-29T12:52:17.223Z,5.90
2022-09-29T12:53:17.099Z,5.50
2022-09-29T12:54:17.262Z,6.30
2022-09-29T12:55:17.046Z,5.60
2022-09-29T12:56:17.032Z,5.30
2022-09-29T12:57:17.002Z,5.70
2022-09-29T12:58:16.980Z,6.70
2022-09-29T12:59:16.956Z,5.30
2022-09-29T13:00:16.933Z,6.40
2022-09-29T13:01:16.959Z,5.50
2022-09-29T13:02:16.934Z,7.10
2022-09-29T13:03:16.867Z,5.60
2022-09-29T13:04:16.946Z,5.40
2022-09-29T13:05:16.827Z,5.40
2022-09-29T13:06:16.803Z,8.20
2022-09-29T13:07:16.783Z,5.50
2022-09-29T13:08:19.324Z,4.50
2022-09-29T13:09:16.934Z,5.60
2022-09-29T13:10:16.715Z,5.60
2022-09-29T13:11:16.693Z,6.40
2022-09-29T13:12:16.671Z,5.20
2022-09-29T13:13:16.651Z,14.50
2022-09-29T13:14:16.626Z,7.00
2022-09-29T13:15:16.610Z,7.40
2022-09-29T13:16:16.632Z,5.50
2022-09-29T13:17:16.564Z,5.40
2022-09-29T13:18:16.541Z,5.50
2022-09-29T13:19:26.092Z,6.30
2022-09-29T13:20:16.495Z,5.60
2022-09-29T13:21:16.477Z,6.40
2022-09-29T13:22:16.458Z,7.20
2022-09-29T13:23:16.427Z,5.80
2022-09-29T13:24:16.435Z,5.80
2022-09-29T13:25:16.396Z,6.30
2022-09-29T13:26:16.370Z,6.10
2022-09-29T13:27:16.338Z,5.10
2022-09-29T13:28:16.323Z,7.10
2022-09-29T13:29:16.352Z,5.10
2022-09-29T13:30:16.275Z,5.50
2022-09-29T13:31:16.424Z,6.80
2022-09-29T13:32:16.227Z,6.50
2022-09-29T13:33:16.207Z,4.90
2022-09-29T13:34:18.889Z,5.00
2022-09-29T13:35:16.172Z,4.90
2022-09-29T13:36:16.140Z,5.10
2022-09-29T13:37:16.122Z,6.20
2022-09-29T13:38:16.094Z,6.10
2022-09-29T13:39:16.088Z,5.20
2022-09-29T13:40:16.072Z,5.10
2022-09-29T13:41:16.030Z,7.10
2022-09-29T13:42:16.010Z,5.40
2022-09-29T13:43:15.999Z,6.20
2022-09-29T13:44:15.965Z,7.30
2022-09-29T13:45:15.942Z,7.40
2022-09-29T13:46:15.931Z,4.80
2022-09-29T13:47:15.898Z,5.70
2022-09-29T13:48:15.875Z,6.20
2022-09-29T13:49:15.859Z,5.00
2022-09-29T13:50:15.832Z,5.30
2022-09-29T13:51:15.809Z,5.90
2022-09-29T13:52:15.790Z,6.00
2022-09-29T13:53:15.771Z,7.00
2022-09-29T13:54:15.793Z,5.40
2022-09-29T13:55:15.721Z,5.10
2022-09-29T13:56:15.718Z,4.60
2022-09-29T13:57:15.683Z,5.30
2022-09-29T13:58:15.656Z,6.30
2022-09-29T13:59:15.638Z,4.70
2022-09-29T14:00:15.617Z,5.20
2022-09-29T14:01:15.628Z,6.50
2022-09-29T14:02:15.615Z,5.20
2022-09-29T14:03:15.548Z,8.40
2022-09-29T14:04:15.535Z,5.70
2022-09-29T14:05:15.500Z,4.60
2022-09-29T14:06:40.236Z,4.90
2022-09-29T14:07:15.462Z,5.40
2022-09-29T14:08:15.433Z,5.50
2022-09-29T14:09:15.535Z,5.50
2022-09-29T14:10:15.390Z,5.70
2022-09-29T14:11:15.366Z,5.10
2022-09-29T14:12:15.383Z,4.40
2022-09-29T14:13:15.328Z,4.60
2022-09-29T14:14:15.305Z,6.30
2022-09-29T14:15:15.286Z,6.90
2022-09-29T14:16:15.334Z,3.90
2022-09-29T14:17:15.239Z,4.30
2022-09-29T14:18:15.217Z,4.90
2022-09-29T14:19:15.187Z,4.90
2022-09-29T14:20:15.178Z,6.40
2022-09-29T14:21:15.151Z,4.20
2022-09-29T14:22:15.126Z,5.10
2022-09-29T14:23:15.104Z,5.30
2022-09-29T14:24:16.375Z,4.60
2022-09-29T14:25:15.063Z,8.20
2022-09-29T14:26:15.043Z,6.10
2022-09-29T14:27:15.014Z,5.70
2022-09-29T14:28:15.031Z,4.80
2022-09-29T14:29:14.974Z,5.10
2022-09-29T14:30:14.956Z,4.80
2022-09-29T14:31:14.989Z,5.70
2022-09-29T14:32:14.907Z,4.90
2022-09-29T14:33:14.884Z,5.50
2022-09-29T14:34:14.861Z,5.60
2022-09-29T14:35:14.838Z,5.50
2022-09-29T14:36:14.839Z,4.80
2022-09-29T14:37:14.795Z,5.00
2022-09-29T14:38:14.776Z,4.20
2022-09-29T14:39:26.075Z,5.20
2022-09-29T14:40:14.727Z,4.60
2022-09-29T14:41:14.708Z,5.00
2022-09-29T14:42:14.684Z,4.30
2022-09-29T14:43:14.666Z,4.80
2022-09-29T14:44:14.659Z,4.10
2022-09-29T14:45:14.618Z,4.00
2022-09-29T14:46:14.656Z,4.70
2022-09-29T14:47:14.574Z,5.40
2022-09-29T14:48:14.552Z,4.30
2022-09-29T14:49:14.535Z,5.50
2022-09-29T14:50:14.512Z,4.70
2022-09-29T14:51:14.490Z,5.00
2022-09-29T14:52:14.469Z,7.30
2022-09-29T14:53:14.449Z,4.80
2022-09-29T14:54:14.423Z,4.60
2022-09-29T14:55:14.402Z,4.50
2022-09-29T14:56:14.385Z,4.70
2022-09-29T14:57:14.358Z,5.10
2022-09-29T14:58:14.339Z,5.20
2022-09-29T14:59:17.704Z,5.90
2022-09-29T15:00:14.316Z,6.20
2022-09-29T15:01:14.269Z,5.90
2022-09-29T15:02:14.277Z,4.40
2022-09-29T15:03:27.065Z,4.70
2022-09-29T15:04:14.245Z,6.30
2022-09-29T15:05:14.184Z,5.10
2022-09-29T15:06:14.156Z,4.80
2022-09-29T15:07:14.135Z,6.00
2022-09-29T15:08:14.114Z,6.00
2022-09-29T15:09:14.250Z,5.20
2022-09-29T15:10:14.070Z,5.30
2022-09-29T15:11:14.046Z,5.10
2022-09-29T15:12:14.024Z,6.80
2022-09-29T15:13:14.005Z,4.50
2022-09-29T15:14:13.980Z,5.20
2022-09-29T15:15:13.961Z,5.80
2022-09-29T15:16:14.002Z,5.20
2022-09-29T15:17:13.924Z,4.60
2022-09-29T15:18:13.895Z,4.90
2022-09-29T15:19:13.871Z,6.40
2022-09-29T15:20:13.850Z,6.90
2022-09-29T15:21:13.828Z,5.00
2022-09-29T15:22:13.804Z,5.90
2022-09-29T15:23:13.786Z,6.00
2022-09-29T15:24:13.764Z,8.60
2022-09-29T15:25:13.738Z,5.70
2022-09-29T15:26:13.716Z,4.90
2022-09-29T15:27:13.695Z,6.40
2022-09-29T15:28:13.675Z,6.20
2022-09-29T15:29:15.896Z,8.50
2022-09-29T15:30:13.642Z,4.80
2022-09-29T15:31:13.822Z,6.30
2022-09-29T15:32:13.602Z,5.50
2022-09-29T15:34:13.570Z,6.50
2022-09-29T15:35:13.515Z,4.80
2022-09-29T15:36:13.495Z,6.00
2022-09-29T15:37:13.476Z,6.20
2022-09-29T15:38:13.451Z,5.20
2022-09-29T15:39:13.424Z,5.30
2022-09-29T15:40:13.402Z,4.30
2022-09-29T15:41:13.388Z,5.40
2022-09-29T15:42:13.356Z,6.30
2022-09-29T15:43:13.337Z,5.30
2022-09-29T15:44:13.481Z,5.50
2022-09-29T15:45:13.302Z,4.80
2022-09-29T15:46:13.303Z,5.50
2022-09-29T15:47:13.244Z,6.50
2022-09-29T15:48:13.455Z,5.00
2022-09-29T15:49:13.204Z,5.50
2022-09-29T15:50:13.179Z,5.50
2022-09-29T15:51:13.157Z,5.10
2022-09-29T15:52:13.131Z,6.10
2022-09-29T15:53:13.113Z,4.40
2022-09-29T15:54:13.162Z,4.70
2022-09-29T15:55:13.066Z,5.30
2022-09-29T15:56:13.042Z,5.10
2022-09-29T15:57:13.024Z,5.10
2022-09-29T15:58:13.001Z,36.60
2022-09-29T15:59:13.021Z,8.10
2022-09-29T16:00:12.953Z,10.70
2022-09-29T16:01:12.979Z,5.70
2022-09-29T16:02:12.913Z,7.00
2022-09-29T16:03:12.890Z,5.40
2022-09-29T16:04:12.890Z,6.90
2022-09-29T16:05:12.843Z,5.40
2022-09-29T16:06:12.824Z,5.00
2022-09-29T16:07:12.795Z,5.60
2022-09-29T16:08:12.774Z,5.30
2022-09-29T16:09:12.798Z,5.50
2022-09-29T16:10:12.726Z,5.40
2022-09-29T16:11:12.706Z,5.70
2022-09-29T16:12:12.683Z,5.80
2022-09-29T16:13:12.668Z,5.30
2022-09-29T16:14:12.638Z,4.50
2022-09-29T16:15:12.615Z,8.00
2022-09-29T16:16:12.688Z,4.30
2022-09-29T16:17:12.573Z,4.40
2022-09-29T16:18:12.548Z,6.10
2022-09-29T16:19:12.526Z,4.50
2022-09-29T16:20:12.523Z,6.00
2022-09-29T16:21:12.481Z,5.60
2022-09-29T16:22:12.458Z,5.10
2022-09-29T16:23:12.443Z,6.90
2022-09-29T16:24:12.414Z,5.20
2022-09-29T16:25:12.396Z,5.50
2022-09-29T16:26:12.369Z,6.00
2022-09-29T16:27:15.206Z,4.10
2022-09-29T16:28:12.322Z,5.90
2022-09-29T16:29:12.302Z,5.70